Weather at Baptist Memorial Hospital Heliport

Public forecast

Using degrees Fahrenheit for public forecast. Weather courtesy of forecast.io.

Closest aviation weather report (METAR) to Baptist Memorial Hospital Heliport

Closest report is Everett-Stewart Regional Airport, 3.5 nm (6.6 km) ESE. Retrieved 2021/12/01 11:35 UTC (4 minutes ago):

KUCY 011135Z AUTO 15010KT 9SM SCT042 SCT048 08/07 A3001 RMK A01

Closest aviation forecast (TAF) to Baptist Memorial Hospital Heliport

Closest forecast is Barkley Regional Airport, 41.0 nm (75.9 km) NNE. Retrieved 2021/12/01 06:12 UTC (5 hours ago):

TAF KPAH 010609Z 0106/0206 VRB02KT P6SM BKN150 FM011400 19005KT P6SM BKN120 FM011600 22008KT P6SM BKN100 FM012100 23004KT P6SM FEW200